Albee, South Dakota
Current Conditions -  °F | °C
As of 7:54 AM on Saturday 20 Dec 2014 (Local Time) from KDXX Reporting Station
Haze Haze  
Wind Chill: 29°   Ceiling: Unl
Heat Index: 34°   Visibility: 5mi
Dew Point: 32°   Wind: 6mph
Humidity: 93%   Direction: 190°S
Pressure: 30.06"   Gusts: NA
Location:  45.0205°N, 96.5453°W
Report Text: KDXX 201354Z AUTO 19005KT 5SM BR CLR 01/00 A3006 RMK AO2
Loading
Personal Weather Stations






























Interactive Weather Map New forecast layout! Learn more

10-Day Weather Forecast

Advertisements
Track Severe Weather on mobile